South Padre Island, Texas
Current Conditions -  °F | °C
As of 1:15 AM on Thursday 18 Dec 2014 (Local Time) from KSPL Reporting Station
Overcast Overcast  
Wind Chill: 70°   Ceiling: 4300
Heat Index: 70°   Visibility: 3mi
Dew Point: 68°   Wind: 14mph
Humidity: 94%   Direction: 60°ENE
Pressure: 30.02"   Gusts: NA
Location:  26.1°N, 97.17°W
Report Text: KSPL 180715Z AUTO 06012KT 3SM OVC043 21/20 A3002 RMK AO1
Loading
Personal Weather Stations






























Interactive Weather Map New forecast layout! Learn more

10-Day Weather Forecast

Advertisements
Track Severe Weather on mobile